sensor_id;sensor_type;location;lat;lon;timestamp;P1;durP1;ratioP1;P2;durP2;ratioP2
16320;SDS011;8269;50.990;4.494;2023-04-01T00:00:55;8.17;;;1.53;;
16320;SDS011;8269;50.990;4.494;2023-04-01T00:03:22;7.47;;;1.57;;
16320;SDS011;8269;50.990;4.494;2023-04-01T00:05:49;5.83;;;1.40;;
16320;SDS011;8269;50.990;4.494;2023-04-01T00:08:15;4.17;;;1.67;;
16320;SDS011;8269;50.990;4.494;2023-04-01T00:10:41;8.73;;;1.63;;
16320;SDS011;8269;50.990;4.494;2023-04-01T00:13:07;5.67;;;1.53;;
16320;SDS011;8269;50.990;4.494;2023-04-01T00:15:34;7.17;;;1.93;;
16320;SDS011;8269;50.990;4.494;2023-04-01T00:18:00;8.37;;;1.57;;
16320;SDS011;8269;50.990;4.494;2023-04-01T00:20:26;7.90;;;1.50;;
16320;SDS011;8269;50.990;4.494;2023-04-01T00:22:52;6.70;;;1.60;;
16320;SDS011;8269;50.990;4.494;2023-04-01T00:25:18;7.63;;;1.60;;
16320;SDS011;8269;50.990;4.494;2023-04-01T00:27:44;8.47;;;1.63;;
16320;SDS011;8269;50.990;4.494;2023-04-01T00:30:10;9.33;;;1.77;;
16320;SDS011;8269;50.990;4.494;2023-04-01T00:32:36;7.43;;;1.67;;
16320;SDS011;8269;50.990;4.494;2023-04-01T00:35:02;4.10;;;1.40;;
16320;SDS011;8269;50.990;4.494;2023-04-01T00:37:28;3.47;;;1.20;;
16320;SDS011;8269;50.990;4.494;2023-04-01T00:39:54;5.73;;;1.67;;
16320;SDS011;8269;50.990;4.494;2023-04-01T00:42:20;5.80;;;1.70;;
16320;SDS011;8269;50.990;4.494;2023-04-01T00:44:50;4.53;;;1.70;;
16320;SDS011;8269;50.990;4.494;2023-04-01T00:47:17;6.00;;;1.77;;
16320;SDS011;8269;50.990;4.494;2023-04-01T00:49:45;4.63;;;1.23;;
16320;SDS011;8269;50.990;4.494;2023-04-01T00:52:14;3.93;;;1.67;;
16320;SDS011;8269;50.990;4.494;2023-04-01T00:54:44;5.60;;;1.80;;
16320;SDS011;8269;50.990;4.494;2023-04-01T00:57:13;5.40;;;2.00;;
16320;SDS011;8269;50.990;4.494;2023-04-01T00:59:45;4.43;;;1.80;;
16320;SDS011;8269;50.990;4.494;2023-04-01T01:02:14;3.20;;;1.67;;
16320;SDS011;8269;50.990;4.494;2023-04-01T01:04:41;5.20;;;1.77;;
16320;SDS011;8269;50.990;4.494;2023-04-01T01:07:26;6.00;;;2.17;;
16320;SDS011;8269;50.990;4.494;2023-04-01T01:12:45;5.17;;;2.90;;
16320;SDS011;8269;50.990;4.494;2023-04-01T01:23:06;8.10;;;2.77;;
16320;SDS011;8269;50.990;4.494;2023-04-01T01:36:34;6.93;;;3.40;;
16320;SDS011;8269;50.990;4.494;2023-04-01T01:39:04;8.67;;;4.03;;
16320;SDS011;8269;50.990;4.494;2023-04-01T01:41:31;9.63;;;4.57;;
16320;SDS011;8269;50.990;4.494;2023-04-01T01:43:59;6.13;;;2.63;;
16320;SDS011;8269;50.990;4.494;2023-04-01T01:46:29;8.83;;;4.20;;
16320;SDS011;8269;50.990;4.494;2023-04-01T01:48:56;9.00;;;3.97;;
16320;SDS011;8269;50.990;4.494;2023-04-01T01:51:23;5.70;;;3.10;;
16320;SDS011;8269;50.990;4.494;2023-04-01T01:53:49;7.03;;;3.30;;
16320;SDS011;8269;50.990;4.494;2023-04-01T01:56:15;6.33;;;3.30;;
16320;SDS011;8269;50.990;4.494;2023-04-01T01:58:51;6.90;;;3.50;;
16320;SDS011;8269;50.990;4.494;2023-04-01T02:01:22;4.80;;;3.10;;
16320;SDS011;8269;50.990;4.494;2023-04-01T02:03:50;9.70;;;4.00;;
16320;SDS011;8269;50.990;4.494;2023-04-01T02:06:18;7.87;;;3.73;;
16320;SDS011;8269;50.990;4.494;2023-04-01T02:08:47;3.90;;;2.43;;
16320;SDS011;8269;50.990;4.494;2023-04-01T02:11:30;9.40;;;3.33;;
16320;SDS011;8269;50.990;4.494;2023-04-01T02:14:02;7.03;;;3.37;;
16320;SDS011;8269;50.990;4.494;2023-04-01T02:16:37;6.97;;;3.57;;
16320;SDS011;8269;50.990;4.494;2023-04-01T02:19:22;5.57;;;3.10;;
16320;SDS011;8269;50.990;4.494;2023-04-01T02:21:55;8.97;;;4.57;;
16320;SDS011;8269;50.990;4.494;2023-04-01T02:24:24;8.50;;;3.97;;
16320;SDS011;8269;50.990;4.494;2023-04-01T02:26:51;8.50;;;3.30;;
16320;SDS011;8269;50.990;4.494;2023-04-01T02:29:21;7.57;;;3.10;;
16320;SDS011;8269;50.990;4.494;2023-04-01T02:31:49;7.60;;;3.90;;
16320;SDS011;8269;50.990;4.494;2023-04-01T02:34:16;6.80;;;2.97;;
16320;SDS011;8269;50.990;4.494;2023-04-01T02:36:41;9.47;;;3.43;;
16320;SDS011;8269;50.990;4.494;2023-04-01T02:39:08;9.47;;;3.40;;
16320;SDS011;8269;50.990;4.494;2023-04-01T02:41:40;7.73;;;3.23;;
16320;SDS011;8269;50.990;4.494;2023-04-01T02:44:07;10.50;;;3.70;;
16320;SDS011;8269;50.990;4.494;2023-04-01T02:46:35;8.50;;;3.80;;
16320;SDS011;8269;50.990;4.494;2023-04-01T02:49:01;7.47;;;3.63;;
16320;SDS011;8269;50.990;4.494;2023-04-01T02:51:26;7.03;;;3.23;;
16320;SDS011;8269;50.990;4.494;2023-04-01T02:53:52;8.23;;;3.90;;
16320;SDS011;8269;50.990;4.494;2023-04-01T02:56:18;6.93;;;2.97;;
16320;SDS011;8269;50.990;4.494;2023-04-01T02:58:44;5.67;;;2.87;;
16320;SDS011;8269;50.990;4.494;2023-04-01T03:01:10;9.27;;;3.10;;
16320;SDS011;8269;50.990;4.494;2023-04-01T03:03:36;6.63;;;2.70;;
16320;SDS011;8269;50.990;4.494;2023-04-01T03:06:07;6.97;;;2.90;;
16320;SDS011;8269;50.990;4.494;2023-04-01T03:08:34;7.10;;;2.63;;
16320;SDS011;8269;50.990;4.494;2023-04-01T03:11:00;5.97;;;2.40;;
16320;SDS011;8269;50.990;4.494;2023-04-01T03:13:26;6.83;;;2.87;;
16320;SDS011;8269;50.990;4.494;2023-04-01T03:15:51;6.27;;;2.57;;
16320;SDS011;8269;50.990;4.494;2023-04-01T03:18:18;3.97;;;2.50;;
16320;SDS011;8269;50.990;4.494;2023-04-01T03:20:44;9.23;;;2.90;;
16320;SDS011;8269;50.990;4.494;2023-04-01T03:23:10;5.67;;;2.77;;
16320;SDS011;8269;50.990;4.494;2023-04-01T03:25:36;3.87;;;2.27;;
16320;SDS011;8269;50.990;4.494;2023-04-01T03:28:01;7.20;;;3.10;;
16320;SDS011;8269;50.990;4.494;2023-04-01T03:30:28;6.53;;;2.80;;
16320;SDS011;8269;50.990;4.494;2023-04-01T03:32:56;6.97;;;3.57;;
16320;SDS011;8269;50.990;4.494;2023-04-01T03:35:25;7.60;;;4.60;;
16320;SDS011;8269;50.990;4.494;2023-04-01T03:37:52;8.50;;;3.53;;
16320;SDS011;8269;50.990;4.494;2023-04-01T03:40:17;7.23;;;3.30;;
16320;SDS011;8269;50.990;4.494;2023-04-01T03:42:44;10.80;;;4.10;;
16320;SDS011;8269;50.990;4.494;2023-04-01T03:45:09;8.70;;;4.30;;
16320;SDS011;8269;50.990;4.494;2023-04-01T03:47:36;7.73;;;4.17;;
16320;SDS011;8269;50.990;4.494;2023-04-01T03:50:02;7.43;;;4.37;;
16320;SDS011;8269;50.990;4.494;2023-04-01T03:52:31;7.47;;;3.80;;
16320;SDS011;8269;50.990;4.494;2023-04-01T03:54:56;9.67;;;5.07;;
16320;SDS011;8269;50.990;4.494;2023-04-01T03:57:22;9.63;;;5.03;;
16320;SDS011;8269;50.990;4.494;2023-04-01T03:59:48;8.27;;;4.10;;
16320;SDS011;8269;50.990;4.494;2023-04-01T04:02:14;10.87;;;4.90;;
16320;SDS011;8269;50.990;4.494;2023-04-01T04:04:39;10.50;;;4.53;;
16320;SDS011;8269;50.990;4.494;2023-04-01T04:07:06;9.90;;;5.03;;
16320;SDS011;8269;50.990;4.494;2023-04-01T04:09:31;11.77;;;5.00;;
16320;SDS011;8269;50.990;4.494;2023-04-01T04:11:58;8.57;;;5.70;;
16320;SDS011;8269;50.990;4.494;2023-04-01T04:14:24;8.27;;;4.00;;
16320;SDS011;8269;50.990;4.494;2023-04-01T04:16:50;9.70;;;4.77;;
16320;SDS011;8269;50.990;4.494;2023-04-01T04:19:15;9.37;;;4.10;;
16320;SDS011;8269;50.990;4.494;2023-04-01T04:21:41;12.60;;;5.67;;
16320;SDS011;8269;50.990;4.494;2023-04-01T04:24:07;10.70;;;5.00;;
16320;SDS011;8269;50.990;4.494;2023-04-01T04:26:33;8.30;;;5.13;;
16320;SDS011;8269;50.990;4.494;2023-04-01T04:28:59;10.53;;;5.47;;
16320;SDS011;8269;50.990;4.494;2023-04-01T04:31:25;10.13;;;4.40;;
16320;SDS011;8269;50.990;4.494;2023-04-01T04:33:52;9.90;;;4.53;;
16320;SDS011;8269;50.990;4.494;2023-04-01T04:36:18;10.43;;;5.40;;
16320;SDS011;8269;50.990;4.494;2023-04-01T04:38:44;12.10;;;6.00;;
16320;SDS011;8269;50.990;4.494;2023-04-01T04:41:10;12.67;;;5.67;;
16320;SDS011;8269;50.990;4.494;2023-04-01T04:43:37;12.70;;;5.30;;
16320;SDS011;8269;50.990;4.494;2023-04-01T04:46:07;8.47;;;5.17;;
16320;SDS011;8269;50.990;4.494;2023-04-01T04:48:34;10.77;;;5.37;;
16320;SDS011;8269;50.990;4.494;2023-04-01T04:51:00;10.67;;;5.07;;
16320;SDS011;8269;50.990;4.494;2023-04-01T04:53:26;9.67;;;5.53;;
16320;SDS011;8269;50.990;4.494;2023-04-01T04:55:52;8.63;;;4.97;;
16320;SDS011;8269;50.990;4.494;2023-04-01T04:58:19;10.43;;;5.23;;
16320;SDS011;8269;50.990;4.494;2023-04-01T05:00:45;6.77;;;4.17;;
16320;SDS011;8269;50.990;4.494;2023-04-01T05:03:11;6.43;;;4.40;;
16320;SDS011;8269;50.990;4.494;2023-04-01T05:05:37;6.60;;;3.80;;
16320;SDS011;8269;50.990;4.494;2023-04-01T05:08:03;8.67;;;4.47;;
16320;SDS011;8269;50.990;4.494;2023-04-01T05:10:29;6.23;;;4.37;;
16320;SDS011;8269;50.990;4.494;2023-04-01T05:12:55;7.20;;;4.27;;
16320;SDS011;8269;50.990;4.494;2023-04-01T05:15:21;8.13;;;4.67;;
16320;SDS011;8269;50.990;4.494;2023-04-01T05:17:46;7.07;;;4.00;;
16320;SDS011;8269;50.990;4.494;2023-04-01T05:20:12;5.87;;;3.97;;
16320;SDS011;8269;50.990;4.494;2023-04-01T05:22:38;8.40;;;4.87;;
16320;SDS011;8269;50.990;4.494;2023-04-01T05:25:04;7.60;;;4.67;;
16320;SDS011;8269;50.990;4.494;2023-04-01T05:27:30;6.97;;;4.40;;
16320;SDS011;8269;50.990;4.494;2023-04-01T05:29:56;5.40;;;3.43;;
16320;SDS011;8269;50.990;4.494;2023-04-01T05:32:22;6.07;;;3.60;;
16320;SDS011;8269;50.990;4.494;2023-04-01T05:34:51;6.60;;;3.80;;
16320;SDS011;8269;50.990;4.494;2023-04-01T05:37:18;6.63;;;3.97;;
16320;SDS011;8269;50.990;4.494;2023-04-01T05:39:43;7.13;;;3.60;;
16320;SDS011;8269;50.990;4.494;2023-04-01T05:42:09;6.00;;;3.63;;
16320;SDS011;8269;50.990;4.494;2023-04-01T05:44:35;6.80;;;3.87;;
16320;SDS011;8269;50.990;4.494;2023-04-01T05:47:01;5.53;;;3.20;;
16320;SDS011;8269;50.990;4.494;2023-04-01T05:49:28;6.73;;;3.83;;
16320;SDS011;8269;50.990;4.494;2023-04-01T05:51:53;5.03;;;3.27;;
16320;SDS011;8269;50.990;4.494;2023-04-01T05:54:19;6.33;;;4.20;;
16320;SDS011;8269;50.990;4.494;2023-04-01T05:56:45;6.30;;;3.97;;
16320;SDS011;8269;50.990;4.494;2023-04-01T05:59:11;6.73;;;4.43;;
16320;SDS011;8269;50.990;4.494;2023-04-01T06:01:37;4.60;;;2.83;;
16320;SDS011;8269;50.990;4.494;2023-04-01T06:04:03;6.13;;;3.83;;
16320;SDS011;8269;50.990;4.494;2023-04-01T06:06:29;6.90;;;4.30;;
16320;SDS011;8269;50.990;4.494;2023-04-01T06:09:10;6.77;;;4.30;;
16320;SDS011;8269;50.990;4.494;2023-04-01T06:11:55;6.20;;;3.77;;
16320;SDS011;8269;50.990;4.494;2023-04-01T06:17:52;8.33;;;5.03;;
16320;SDS011;8269;50.990;4.494;2023-04-01T06:23:28;5.73;;;3.80;;
16320;SDS011;8269;50.990;4.494;2023-04-01T06:31:20;5.63;;;3.20;;
16320;SDS011;8269;50.990;4.494;2023-04-01T06:34:38;6.40;;;4.43;;
16320;SDS011;8269;50.990;4.494;2023-04-01T06:45:34;6.33;;;3.13;;
16320;SDS011;8269;50.990;4.494;2023-04-01T06:53:49;5.40;;;2.20;;
16320;SDS011;8269;50.990;4.494;2023-04-01T06:56:27;3.30;;;1.80;;
16320;SDS011;8269;50.990;4.494;2023-04-01T06:59:14;5.03;;;1.93;;
16320;SDS011;8269;50.990;4.494;2023-04-01T07:01:44;3.30;;;1.80;;
16320;SDS011;8269;50.990;4.494;2023-04-01T07:04:15;2.50;;;1.70;;
16320;SDS011;8269;50.990;4.494;2023-04-01T07:06:50;3.00;;;1.47;;
16320;SDS011;8269;50.990;4.494;2023-04-01T07:09:24;2.60;;;1.80;;
16320;SDS011;8269;50.990;4.494;2023-04-01T07:11:53;3.00;;;1.63;;
16320;SDS011;8269;50.990;4.494;2023-04-01T07:14:27;3.53;;;1.47;;
16320;SDS011;8269;50.990;4.494;2023-04-01T07:17:12;2.50;;;1.70;;
16320;SDS011;8269;50.990;4.494;2023-04-01T07:22:35;4.50;;;1.73;;
16320;SDS011;8269;50.990;4.494;2023-04-01T07:25:11;2.37;;;1.70;;
16320;SDS011;8269;50.990;4.494;2023-04-01T07:27:42;3.13;;;2.20;;
16320;SDS011;8269;50.990;4.494;2023-04-01T07:30:20;3.60;;;2.10;;
16320;SDS011;8269;50.990;4.494;2023-04-01T07:32:49;3.87;;;1.80;;
16320;SDS011;8269;50.990;4.494;2023-04-01T07:43:42;2.30;;;1.60;;
16320;SDS011;8269;50.990;4.494;2023-04-01T07:46:17;2.23;;;1.30;;
16320;SDS011;8269;50.990;4.494;2023-04-01T07:49:07;2.60;;;1.43;;
16320;SDS011;8269;50.990;4.494;2023-04-01T07:52:02;2.13;;;1.57;;
16320;SDS011;8269;50.990;4.494;2023-04-01T07:54:53;2.97;;;1.60;;
16320;SDS011;8269;50.990;4.494;2023-04-01T07:57:39;2.37;;;1.57;;
16320;SDS011;8269;50.990;4.494;2023-04-01T08:00:13;3.27;;;1.70;;
16320;SDS011;8269;50.990;4.494;2023-04-01T08:02:53;2.97;;;1.90;;
16320;SDS011;8269;50.990;4.494;2023-04-01T08:05:26;2.07;;;1.60;;
16320;SDS011;8269;50.990;4.494;2023-04-01T08:10:45;2.87;;;1.50;;
16320;SDS011;8269;50.990;4.494;2023-04-01T08:15:56;2.37;;;1.30;;
16320;SDS011;8269;50.990;4.494;2023-04-01T08:24:00;4.13;;;1.80;;
16320;SDS011;8269;50.990;4.494;2023-04-01T08:26:42;2.90;;;1.70;;
16320;SDS011;8269;50.990;4.494;2023-04-01T08:29:18;4.60;;;1.80;;
16320;SDS011;8269;50.990;4.494;2023-04-01T08:32:03;3.00;;;1.60;;
16320;SDS011;8269;50.990;4.494;2023-04-01T08:34:42;2.57;;;1.33;;
16320;SDS011;8269;50.990;4.494;2023-04-01T08:37:11;3.37;;;1.37;;
16320;SDS011;8269;50.990;4.494;2023-04-01T08:39:56;4.43;;;1.70;;
16320;SDS011;8269;50.990;4.494;2023-04-01T08:45:35;3.07;;;1.60;;
16320;SDS011;8269;50.990;4.494;2023-04-01T08:59:48;2.43;;;1.40;;
16320;SDS011;8269;50.990;4.494;2023-04-01T09:10:56;2.97;;;1.60;;
16320;SDS011;8269;50.990;4.494;2023-04-01T09:21:25;3.47;;;2.17;;
16320;SDS011;8269;50.990;4.494;2023-04-01T09:24:19;3.27;;;2.40;;
16320;SDS011;8269;50.990;4.494;2023-04-01T09:27:27;4.50;;;2.60;;
16320;SDS011;8269;50.990;4.494;2023-04-01T09:36:04;3.90;;;2.40;;
16320;SDS011;8269;50.990;4.494;2023-04-01T09:38:51;6.30;;;3.60;;
16320;SDS011;8269;50.990;4.494;2023-04-01T09:44:01;5.03;;;3.43;;
16320;SDS011;8269;50.990;4.494;2023-04-01T09:46:44;6.80;;;3.90;;
16320;SDS011;8269;50.990;4.494;2023-04-01T09:49:33;7.87;;;5.40;;
16320;SDS011;8269;50.990;4.494;2023-04-01T10:02:59;7.07;;;4.60;;
16320;SDS011;8269;50.990;4.494;2023-04-01T10:05:43;7.80;;;5.07;;
16320;SDS011;8269;50.990;4.494;2023-04-01T10:34:05;6.33;;;3.90;;
16320;SDS011;8269;50.990;4.494;2023-04-01T10:36:53;5.70;;;3.30;;
16320;SDS011;8269;50.990;4.494;2023-04-01T10:42:40;4.77;;;2.90;;
16320;SDS011;8269;50.990;4.494;2023-04-01T10:50:57;4.53;;;3.03;;
16320;SDS011;8269;50.990;4.494;2023-04-01T10:53:37;4.77;;;2.63;;
16320;SDS011;8269;50.990;4.494;2023-04-01T10:59:01;3.13;;;1.90;;
16320;SDS011;8269;50.990;4.494;2023-04-01T11:32:29;5.17;;;2.87;;
16320;SDS011;8269;50.990;4.494;2023-04-01T11:38:19;3.43;;;2.20;;
16320;SDS011;8269;50.990;4.494;2023-04-01T11:41:16;3.23;;;2.23;;
16320;SDS011;8269;50.990;4.494;2023-04-01T11:57:31;3.40;;;1.97;;
16320;SDS011;8269;50.990;4.494;2023-04-01T12:00:23;4.87;;;1.77;;
16320;SDS011;8269;50.990;4.494;2023-04-01T12:17:29;2.80;;;1.83;;
16320;SDS011;8269;50.990;4.494;2023-04-01T12:36:12;4.27;;;2.43;;
16320;SDS011;8269;50.990;4.494;2023-04-01T12:41:39;2.47;;;1.80;;
16320;SDS011;8269;50.990;4.494;2023-04-01T12:44:13;2.97;;;1.70;;
16320;SDS011;8269;50.990;4.494;2023-04-01T12:49:21;3.03;;;1.77;;
16320;SDS011;8269;50.990;4.494;2023-04-01T13:06:27;3.43;;;1.57;;
16320;SDS011;8269;50.990;4.494;2023-04-01T13:09:01;2.30;;;1.30;;
16320;SDS011;8269;50.990;4.494;2023-04-01T13:25:32;2.57;;;1.00;;
16320;SDS011;8269;50.990;4.494;2023-04-01T13:28:23;1.27;;;1.03;;
16320;SDS011;8269;50.990;4.494;2023-04-01T13:33:42;2.70;;;1.30;;
16320;SDS011;8269;50.990;4.494;2023-04-01T13:43:58;3.30;;;2.10;;
16320;SDS011;8269;50.990;4.494;2023-04-01T13:46:38;2.67;;;1.90;;
16320;SDS011;8269;50.990;4.494;2023-04-01T13:55:23;6.57;;;4.67;;
16320;SDS011;8269;50.990;4.494;2023-04-01T13:58:27;8.43;;;5.83;;
16320;SDS011;8269;50.990;4.494;2023-04-01T14:03:49;8.87;;;6.83;;
16320;SDS011;8269;50.990;4.494;2023-04-01T14:06:43;8.53;;;7.60;;
16320;SDS011;8269;50.990;4.494;2023-04-01T14:15:22;11.33;;;8.33;;
16320;SDS011;8269;50.990;4.494;2023-04-01T14:26:04;8.10;;;5.57;;
16320;SDS011;8269;50.990;4.494;2023-04-01T14:34:33;7.70;;;6.70;;
16320;SDS011;8269;50.990;4.494;2023-04-01T14:37:18;8.63;;;7.10;;
16320;SDS011;8269;50.990;4.494;2023-04-01T14:43:14;5.60;;;4.30;;
16320;SDS011;8269;50.990;4.494;2023-04-01T14:48:49;5.00;;;4.03;;
16320;SDS011;8269;50.990;4.494;2023-04-01T14:51:23;7.13;;;5.73;;
16320;SDS011;8269;50.990;4.494;2023-04-01T14:56:43;6.90;;;3.67;;
16320;SDS011;8269;50.990;4.494;2023-04-01T15:01:49;6.60;;;5.50;;
16320;SDS011;8269;50.990;4.494;2023-04-01T15:10:47;6.77;;;4.87;;
16320;SDS011;8269;50.990;4.494;2023-04-01T15:18:37;21.33;;;19.10;;
16320;SDS011;8269;50.990;4.494;2023-04-01T15:21:30;9.63;;;6.60;;
16320;SDS011;8269;50.990;4.494;2023-04-01T15:24:22;10.80;;;8.43;;
16320;SDS011;8269;50.990;4.494;2023-04-01T15:29:47;9.27;;;7.87;;
16320;SDS011;8269;50.990;4.494;2023-04-01T15:35:21;8.87;;;7.90;;
16320;SDS011;8269;50.990;4.494;2023-04-01T15:41:03;8.77;;;6.13;;
16320;SDS011;8269;50.990;4.494;2023-04-01T15:43:47;7.87;;;5.77;;
16320;SDS011;8269;50.990;4.494;2023-04-01T15:46:23;6.47;;;5.10;;
16320;SDS011;8269;50.990;4.494;2023-04-01T16:00:53;7.73;;;5.47;;
16320;SDS011;8269;50.990;4.494;2023-04-01T16:03:54;6.93;;;5.33;;
16320;SDS011;8269;50.990;4.494;2023-04-01T16:19:56;5.13;;;3.67;;
16320;SDS011;8269;50.990;4.494;2023-04-01T16:22:35;6.60;;;4.17;;
16320;SDS011;8269;50.990;4.494;2023-04-01T16:30:40;6.70;;;4.43;;
16320;SDS011;8269;50.990;4.494;2023-04-01T16:33:15;7.37;;;5.17;;
16320;SDS011;8269;50.990;4.494;2023-04-01T16:41:36;6.37;;;4.83;;
16320;SDS011;8269;50.990;4.494;2023-04-01T16:44:24;5.53;;;4.63;;
16320;SDS011;8269;50.990;4.494;2023-04-01T16:46:53;7.40;;;4.50;;
16320;SDS011;8269;50.990;4.494;2023-04-01T16:52:00;6.80;;;4.10;;
16320;SDS011;8269;50.990;4.494;2023-04-01T16:54:52;6.80;;;4.87;;
16320;SDS011;8269;50.990;4.494;2023-04-01T16:57:37;6.97;;;5.77;;
16320;SDS011;8269;50.990;4.494;2023-04-01T17:03:08;6.90;;;5.67;;
16320;SDS011;8269;50.990;4.494;2023-04-01T17:05:46;5.50;;;4.23;;
16320;SDS011;8269;50.990;4.494;2023-04-01T17:08:19;5.70;;;4.37;;
16320;SDS011;8269;50.990;4.494;2023-04-01T17:20:02;9.03;;;6.40;;
16320;SDS011;8269;50.990;4.494;2023-04-01T17:22:55;6.83;;;5.50;;
16320;SDS011;8269;50.990;4.494;2023-04-01T17:36:34;5.37;;;4.80;;
16320;SDS011;8269;50.990;4.494;2023-04-01T17:42:26;6.50;;;5.23;;
16320;SDS011;8269;50.990;4.494;2023-04-01T17:44:58;6.20;;;5.10;;
16320;SDS011;8269;50.990;4.494;2023-04-01T17:53:18;6.80;;;6.00;;
16320;SDS011;8269;50.990;4.494;2023-04-01T17:58:45;7.20;;;5.93;;
16320;SDS011;8269;50.990;4.494;2023-04-01T18:01:17;7.30;;;6.57;;
16320;SDS011;8269;50.990;4.494;2023-04-01T18:03:55;7.63;;;6.30;;
16320;SDS011;8269;50.990;4.494;2023-04-01T18:15:39;8.73;;;6.93;;
16320;SDS011;8269;50.990;4.494;2023-04-01T18:18:17;7.77;;;6.40;;
16320;SDS011;8269;50.990;4.494;2023-04-01T18:27:01;6.07;;;4.30;;
16320;SDS011;8269;50.990;4.494;2023-04-01T18:29:52;9.20;;;4.70;;
16320;SDS011;8269;50.990;4.494;2023-04-01T18:32:37;7.10;;;5.03;;
16320;SDS011;8269;50.990;4.494;2023-04-01T18:35:34;7.07;;;4.80;;
16320;SDS011;8269;50.990;4.494;2023-04-01T18:44:22;8.77;;;6.07;;
16320;SDS011;8269;50.990;4.494;2023-04-01T18:47:08;9.67;;;6.70;;
16320;SDS011;8269;50.990;4.494;2023-04-01T18:50:02;9.23;;;6.10;;
16320;SDS011;8269;50.990;4.494;2023-04-01T18:55:47;11.73;;;7.07;;
16320;SDS011;8269;50.990;4.494;2023-04-01T18:58:34;10.53;;;7.70;;
16320;SDS011;8269;50.990;4.494;2023-04-01T19:06:20;13.83;;;8.93;;
16320;SDS011;8269;50.990;4.494;2023-04-01T19:08:52;15.03;;;8.27;;
16320;SDS011;8269;50.990;4.494;2023-04-01T19:19:24;17.07;;;9.10;;
16320;SDS011;8269;50.990;4.494;2023-04-01T19:25:35;14.33;;;9.20;;
16320;SDS011;8269;50.990;4.494;2023-04-01T19:28:30;14.37;;;10.23;;
16320;SDS011;8269;50.990;4.494;2023-04-01T19:31:08;15.40;;;9.63;;
16320;SDS011;8269;50.990;4.494;2023-04-01T19:36:27;16.17;;;9.20;;
16320;SDS011;8269;50.990;4.494;2023-04-01T19:50:29;13.87;;;8.77;;
16320;SDS011;8269;50.990;4.494;2023-04-01T19:53:00;16.13;;;8.73;;
16320;SDS011;8269;50.990;4.494;2023-04-01T19:55:50;14.07;;;9.00;;
16320;SDS011;8269;50.990;4.494;2023-04-01T20:01:14;16.87;;;8.67;;
16320;SDS011;8269;50.990;4.494;2023-04-01T20:03:54;14.70;;;8.90;;
16320;SDS011;8269;50.990;4.494;2023-04-01T20:06:28;18.53;;;9.33;;
16320;SDS011;8269;50.990;4.494;2023-04-01T20:14:45;20.03;;;10.40;;
16320;SDS011;8269;50.990;4.494;2023-04-01T20:19:45;26.23;;;12.20;;
16320;SDS011;8269;50.990;4.494;2023-04-01T20:22:29;22.37;;;12.10;;
16320;SDS011;8269;50.990;4.494;2023-04-01T20:25:22;24.00;;;13.80;;
16320;SDS011;8269;50.990;4.494;2023-04-01T20:27:56;20.93;;;13.40;;
16320;SDS011;8269;50.990;4.494;2023-04-01T20:41:25;27.50;;;15.80;;
16320;SDS011;8269;50.990;4.494;2023-04-01T20:50:00;27.87;;;15.70;;
16320;SDS011;8269;50.990;4.494;2023-04-01T20:55:28;25.53;;;15.90;;
16320;SDS011;8269;50.990;4.494;2023-04-01T20:58:06;24.53;;;16.43;;
16320;SDS011;8269;50.990;4.494;2023-04-01T21:03:31;28.87;;;18.50;;
16320;SDS011;8269;50.990;4.494;2023-04-01T21:17:50;24.83;;;17.17;;
16320;SDS011;8269;50.990;4.494;2023-04-01T21:23:06;19.90;;;13.40;;
16320;SDS011;8269;50.990;4.494;2023-04-01T21:26:02;23.27;;;14.07;;
16320;SDS011;8269;50.990;4.494;2023-04-01T21:55:11;21.33;;;13.73;;
16320;SDS011;8269;50.990;4.494;2023-04-01T22:03:50;13.10;;;9.67;;
16320;SDS011;8269;50.990;4.494;2023-04-01T22:12:17;18.00;;;11.33;;
16320;SDS011;8269;50.990;4.494;2023-04-01T22:15:09;16.30;;;11.53;;
16320;SDS011;8269;50.990;4.494;2023-04-01T22:21:04;19.10;;;13.83;;
16320;SDS011;8269;50.990;4.494;2023-04-01T22:26:28;20.40;;;14.20;;
16320;SDS011;8269;50.990;4.494;2023-04-01T22:31:28;21.27;;;14.33;;
16320;SDS011;8269;50.990;4.494;2023-04-01T22:34:19;20.70;;;14.20;;
16320;SDS011;8269;50.990;4.494;2023-04-01T22:37:12;20.50;;;14.23;;
16320;SDS011;8269;50.990;4.494;2023-04-01T22:47:56;21.93;;;14.40;;
16320;SDS011;8269;50.990;4.494;2023-04-01T22:50:36;23.30;;;15.47;;
16320;SDS011;8269;50.990;4.494;2023-04-01T22:53:16;20.97;;;14.67;;
16320;SDS011;8269;50.990;4.494;2023-04-01T22:56:03;24.27;;;16.77;;
16320;SDS011;8269;50.990;4.494;2023-04-01T22:58:42;24.77;;;16.40;;
16320;SDS011;8269;50.990;4.494;2023-04-01T23:01:16;22.10;;;15.03;;
16320;SDS011;8269;50.990;4.494;2023-04-01T23:03:49;23.77;;;16.60;;
16320;SDS011;8269;50.990;4.494;2023-04-01T23:06:19;18.10;;;11.17;;
16320;SDS011;8269;50.990;4.494;2023-04-01T23:11:18;21.83;;;14.67;;
16320;SDS011;8269;50.990;4.494;2023-04-01T23:14:00;22.80;;;15.53;;
16320;SDS011;8269;50.990;4.494;2023-04-01T23:16:38;22.60;;;15.50;;
16320;SDS011;8269;50.990;4.494;2023-04-01T23:26:56;23.30;;;16.00;;
16320;SDS011;8269;50.990;4.494;2023-04-01T23:29:25;25.37;;;17.03;;
16320;SDS011;8269;50.990;4.494;2023-04-01T23:31:58;25.67;;;16.93;;
16320;SDS011;8269;50.990;4.494;2023-04-01T23:34:28;26.13;;;18.57;;
16320;SDS011;8269;50.990;4.494;2023-04-01T23:36:57;27.67;;;17.97;;
16320;SDS011;8269;50.990;4.494;2023-04-01T23:41:54;26.90;;;18.33;;
16320;SDS011;8269;50.990;4.494;2023-04-01T23:44:21;28.87;;;17.50;;
16320;SDS011;8269;50.990;4.494;2023-04-01T23:46:49;27.17;;;18.83;;
16320;SDS011;8269;50.990;4.494;2023-04-01T23:49:30;27.17;;;17.93;;
16320;SDS011;8269;50.990;4.494;2023-04-01T23:54:48;25.93;;;18.07;;
16320;SDS011;8269;50.990;4.494;2023-04-01T23:57:25;27.43;;;18.30;;
